Time;durP1;ratioP1;P1;durP2;ratioP2;P2;SDS_P1;SDS_P2;PMS_P1;PMS_P2;Temp;Humidity;BMP_temperature;BMP_pressure;BME280_temperature;BME280_humidity;BME280_pressure;Samples;Min_cycle;Max_cycle;Signal;HPM_P1;HPM_P2
2021/06/04 00:01:45;;;;;;;5.05;4.05;;;;;;;22.86;41.11;101587.91;3579479;40;20048;-68
2021/06/04 00:04:13;;;;;;;5.40;4.03;;;;;;;22.85;41.00;101591.75;3582865;40;20053;-68
2021/06/04 00:06:41;;;;;;;5.60;4.13;;;;;;;22.85;41.42;101588.09;3581606;40;20121;-69
2021/06/04 00:09:11;;;;;;;5.80;3.75;;;;;;;22.85;41.42;101588.94;3580107;40;20052;-68
2021/06/04 00:11:43;;;;;;;5.05;3.88;;;;;;;22.86;41.76;101589.81;3577658;40;20056;-68
2021/06/04 00:14:16;;;;;;;6.03;4.50;;;;;;;22.83;41.72;101593.84;3572910;40;20434;-68
2021/06/04 00:16:46;;;;;;;6.15;3.80;;;;;;;22.83;41.51;101598.53;3578498;40;20309;-68
2021/06/04 00:19:17;;;;;;;5.95;4.15;;;;;;;22.83;41.68;101587.38;3578533;40;20059;-68
2021/06/04 00:21:50;;;;;;;5.07;3.88;;;;;;;22.83;41.39;101595.75;3578217;40;20134;-68
2021/06/04 00:24:20;;;;;;;4.82;3.95;;;;;;;22.79;41.45;101586.06;3579900;40;20045;-69
2021/06/04 00:26:50;;;;;;;5.00;3.97;;;;;;;22.80;41.67;101582.19;3577002;40;20080;-68
2021/06/04 00:29:19;;;;;;;5.75;3.85;;;;;;;22.81;41.74;101584.78;3576333;40;20397;-69
2021/06/04 00:31:50;;;;;;;5.85;4.18;;;;;;;22.79;41.56;101581.34;3578141;40;20057;-69
2021/06/04 00:34:18;;;;;;;5.60;3.83;;;;;;;22.77;41.83;101582.59;3579270;40;20037;-68
2021/06/04 00:36:46;;;;;;;4.95;3.58;;;;;;;22.77;41.65;101577.88;3577066;40;20044;-69
2021/06/04 00:39:18;;;;;;;5.35;4.00;;;;;;;22.79;41.40;101581.34;3575243;40;20060;-69
2021/06/04 00:41:49;;;;;;;5.38;3.92;;;;;;;22.77;41.74;101577.00;3578164;40;20045;-69
2021/06/04 00:44:21;;;;;;;5.45;4.10;;;;;;;22.77;41.96;101571.44;3577291;40;20025;-68
2021/06/04 00:46:49;;;;;;;5.88;4.00;;;;;;;22.74;42.04;101572.66;3577341;40;20052;-68
2021/06/04 00:49:17;;;;;;;6.55;4.28;;;;;;;22.73;41.69;101576.50;3578822;40;20057;-68
2021/06/04 00:51:50;;;;;;;6.28;4.40;;;;;;;22.73;41.87;101573.72;3578684;40;20080;-68
2021/06/04 00:54:21;;;;;;;5.68;4.40;;;;;;;22.70;41.86;101581.63;3577948;40;20049;-68
2021/06/04 00:56:50;;;;;;;5.30;4.18;;;;;;;22.69;42.08;101572.41;3580772;40;20045;-68
2021/06/04 00:59:26;;;;;;;5.75;4.32;;;;;;;22.70;41.90;101571.34;3577778;40;20041;-68
2021/06/04 01:01:58;;;;;;;5.07;3.85;;;;;;;22.65;41.88;101576.63;3577383;40;20438;-69
2021/06/04 01:04:28;;;;;;;5.78;3.60;;;;;;;22.67;41.67;101579.22;3577886;40;20056;-69
2021/06/04 01:07:06;;;;;;;4.47;3.63;;;;;;;22.66;41.99;101580.28;3578733;40;20040;-68
2021/06/04 01:09:59;;;;;;;5.65;4.18;;;;;;;22.65;42.10;101575.75;3580193;40;20059;-68
2021/06/04 01:12:41;;;;;;;5.07;4.10;;;;;;;22.63;42.23;101577.91;3577998;40;20055;-68
2021/06/04 01:15:18;;;;;;;4.97;4.13;;;;;;;22.61;42.18;101574.44;3578114;40;20045;-69
2021/06/04 01:17:56;;;;;;;5.03;3.90;;;;;;;22.62;42.02;101576.16;3580262;40;20045;-68
2021/06/04 01:20:27;;;;;;;5.85;4.13;;;;;;;22.57;41.82;101572.03;3580992;40;20045;-68
2021/06/04 01:23:10;;;;;;;4.90;3.88;;;;;;;22.57;41.96;101572.03;3580881;40;20051;-68
2021/06/04 01:25:48;;;;;;;6.15;4.00;;;;;;;22.54;42.23;101582.72;3580100;40;20319;-68
2021/06/04 01:28:24;;;;;;;5.40;4.20;;;;;;;22.53;41.80;101581.84;3573375;40;20037;-68
2021/06/04 01:31:02;;;;;;;5.03;3.75;;;;;;;22.50;42.30;101578.56;3581820;40;20413;-69
2021/06/04 01:33:37;;;;;;;5.53;3.80;;;;;;;22.48;42.18;101584.34;3580749;40;20079;-68
2021/06/04 01:36:07;;;;;;;5.57;3.78;;;;;;;22.48;42.14;101586.25;3577930;40;20126;-68
2021/06/04 01:38:40;;;;;;;5.63;3.92;;;;;;;22.47;41.89;101587.34;3578795;40;20063;-68
2021/06/04 01:41:13;;;;;;;5.28;4.05;;;;;;;22.45;42.56;101593.09;3577741;40;20045;-68
2021/06/04 01:43:52;;;;;;;5.55;4.00;;;;;;;22.47;42.33;101592.91;3581180;40;20381;-69
2021/06/04 01:46:24;;;;;;;5.75;4.05;;;;;;;22.47;42.37;101588.22;3578237;40;20053;-68
2021/06/04 01:48:58;;;;;;;5.32;3.85;;;;;;;22.48;42.35;101589.03;3577424;40;20053;-69
2021/06/04 01:51:31;;;;;;;5.80;3.97;;;;;;;22.47;41.93;101590.13;3579142;40;20134;-68
2021/06/04 01:54:13;;;;;;;5.85;4.40;;;;;;;22.45;42.48;101584.75;3577073;40;20059;-68
2021/06/04 01:56:47;;;;;;;5.32;4.30;;;;;;;22.46;42.54;101589.28;3580292;40;20405;-68
2021/06/04 01:59:27;;;;;;;5.50;4.05;;;;;;;22.44;42.50;101588.59;3576107;40;20053;-68
2021/06/04 02:02:06;;;;;;;4.82;3.85;;;;;;;22.42;42.04;101587.03;3576615;40;20099;-68
2021/06/04 02:04:38;;;;;;;5.78;4.10;;;;;;;22.42;42.84;101587.03;3572952;40;20140;-69
2021/06/04 02:07:09;;;;;;;5.95;4.07;;;;;;;22.40;42.55;101587.22;3574698;40;20390;-68
2021/06/04 02:09:38;;;;;;;4.80;4.00;;;;;;;22.37;42.64;101583.97;3577841;40;20134;-68
2021/06/04 02:12:20;;;;;;;6.03;4.03;;;;;;;22.38;42.35;101586.56;3577859;40;20138;-68
2021/06/04 02:14:58;;;;;;;5.00;3.92;;;;;;;22.37;42.65;101590.41;3575704;40;20049;-68
2021/06/04 02:17:43;;;;;;;5.07;3.75;;;;;;;22.36;42.54;101588.69;3585766;40;20050;-69
2021/06/04 02:20:22;;;;;;;4.50;3.67;;;;;;;22.34;43.12;101595.50;3567913;40;20057;-68
2021/06/04 02:23:06;;;;;;;5.38;3.60;;;;;;;22.32;42.52;101597.59;3577813;40;20055;-68
2021/06/04 02:25:45;;;;;;;5.72;3.97;;;;;;;22.33;42.87;101603.00;3576370;40;20049;-68
2021/06/04 02:28:24;;;;;;;5.50;4.18;;;;;;;22.32;42.76;101594.81;3578010;40;20048;-68
2021/06/04 02:30:59;;;;;;;4.60;3.95;;;;;;;22.31;42.41;101601.47;3575416;40;20417;-68
2021/06/04 02:33:34;;;;;;;5.15;3.97;;;;;;;22.31;42.71;101599.56;3580396;40;20118;-68
2021/06/04 02:36:07;;;;;;;5.65;3.90;;;;;;;22.29;43.12;101604.44;3580656;40;20053;-68
2021/06/04 02:38:41;;;;;;;5.15;4.30;;;;;;;22.29;43.14;101595.22;3577939;40;20429;-68
2021/06/04 02:41:13;;;;;;;5.65;4.05;;;;;;;22.28;43.02;101597.16;3586357;40;20048;-68
2021/06/04 02:43:44;;;;;;;;;;;;;;;21.98;43.17;101596.22;3575066;40;20053;-69
2021/06/04 02:46:18;;;;;;;4.75;3.53;;;;;;;22.24;42.95;101589.34;3574874;40;19951;-68
2021/06/04 02:48:51;;;;;;;5.75;4.57;;;;;;;22.26;43.05;101598.38;3577416;40;20063;-68
2021/06/04 02:51:27;;;;;;;6.05;4.15;;;;;;;22.24;43.04;101597.69;3573871;40;20133;-69
2021/06/04 02:53:59;;;;;;;6.13;4.07;;;;;;;22.22;42.65;101597.91;3576373;40;20167;-68
2021/06/04 02:56:30;;;;;;;5.70;4.47;;;;;;;22.21;42.60;101592.53;3577594;40;20080;-68
2021/06/04 02:59:02;;;;;;;6.95;4.55;;;;;;;22.21;42.94;101598.09;3576971;40;20050;-68
2021/06/04 03:01:35;;;;;;;7.78;4.63;;;;;;;22.17;42.60;101592.88;3576897;40;20064;-68
2021/06/04 03:04:08;;;;;;;5.22;4.10;;;;;;;22.15;42.78;101606.13;3573790;40;20330;-68
2021/06/04 03:06:43;;;;;;;6.75;4.60;;;;;;;22.15;42.79;101610.81;3576008;40;20045;-68
2021/06/04 03:09:19;;;;;;;6.30;4.50;;;;;;;22.15;42.67;101613.59;3573762;40;20310;-69
2021/06/04 03:11:50;;;;;;;5.40;4.40;;;;;;;22.12;42.42;101614.88;3575964;40;20093;-68
2021/06/04 03:14:20;;;;;;;6.53;4.40;;;;;;;22.13;42.57;101618.53;3577663;40;20052;-68
2021/06/04 03:16:50;;;;;;;5.97;4.47;;;;;;;22.12;42.97;101611.22;3576401;40;21712;-68
2021/06/04 03:19:19;;;;;;;7.00;4.78;;;;;;;22.11;42.95;101615.06;3575007;40;20130;-68
2021/06/04 03:21:53;;;;;;;6.07;4.05;;;;;;;22.09;43.26;101622.75;3579219;40;20045;-68
2021/06/04 03:24:25;;;;;;;4.70;4.03;;;;;;;22.10;42.96;101630.91;3574156;40;20048;-69
2021/06/04 03:26:53;;;;;;;5.77;4.40;;;;;;;22.07;42.83;101627.63;3576837;40;20070;-69
2021/06/04 03:29:24;;;;;;;6.38;4.30;;;;;;;22.10;43.11;101628.13;3576189;40;20309;-68
2021/06/04 03:31:56;;;;;;;5.00;3.95;;;;;;;22.10;42.95;101635.63;3576220;40;20053;-69
2021/06/04 03:34:27;;;;;;;5.53;4.17;;;;;;;22.07;43.07;101636.84;3583752;39;20052;-68
2021/06/04 03:37:00;;;;;;;4.88;3.83;;;;;;;22.10;43.23;101642.06;3576100;40;20275;-68
2021/06/04 03:39:34;;;;;;;5.60;4.05;;;;;;;22.09;43.21;101631.97;3577764;40;20049;-68
2021/06/04 03:42:02;;;;;;;;;;;;;;;21.80;43.57;101631.91;3583460;40;20041;-68
2021/06/04 03:44:34;;;;;;;4.93;3.72;;;;;;;22.05;43.25;101639.00;3576290;40;20198;-68
2021/06/04 03:47:03;;;;;;;;;;;;;;;21.79;43.02;101638.53;3577878;40;20045;-69
2021/06/04 03:49:35;;;;;;;4.90;3.53;;;;;;;22.01;43.08;101640.41;3577633;40;20290;-69
2021/06/04 03:52:08;;;;;;;6.82;4.38;;;;;;;22.06;43.04;101646.28;3577614;40;20041;-68
2021/06/04 03:54:41;;;;;;;5.53;4.18;;;;;;;22.05;43.25;101644.56;3577639;40;20049;-69
2021/06/04 03:57:15;;;;;;;5.20;4.07;;;;;;;22.03;43.56;101643.88;3579047;40;20045;-69
2021/06/04 03:59:44;;;;;;;6.07;3.80;;;;;;;22.02;43.11;101641.28;3577775;40;20421;-68
2021/06/04 04:02:16;;;;;;;4.95;3.83;;;;;;;22.00;43.35;101633.09;3577875;40;20053;-69
2021/06/04 04:04:44;;;;;;;5.83;3.80;;;;;;;21.96;43.20;101628.97;3574736;40;20045;-68
2021/06/04 04:07:13;;;;;;;5.57;3.75;;;;;;;21.99;43.09;101634.16;3577271;40;20275;-68
2021/06/04 04:09:41;;;;;;;5.15;3.95;;;;;;;21.97;43.52;101633.50;3575557;40;20126;-68
2021/06/04 04:12:09;;;;;;;5.35;4.07;;;;;;;21.96;43.20;101631.75;3581276;40;20128;-69
2021/06/04 04:14:39;;;;;;;5.50;4.38;;;;;;;21.95;43.67;101623.59;3576022;40;20068;-68
2021/06/04 04:17:08;;;;;;;6.72;4.63;;;;;;;21.97;43.24;101632.63;3576422;40;20078;-69
2021/06/04 04:19:36;;;;;;;5.38;4.18;;;;;;;21.93;43.43;101634.91;3579728;40;20056;-67
2021/06/04 04:22:06;;;;;;;7.28;4.25;;;;;;;21.94;43.68;101641.34;3581070;40;20055;-67
2021/06/04 04:24:40;;;;;;;5.47;4.50;;;;;;;21.94;43.59;101641.34;3576848;40;20048;-67
2021/06/04 04:27:10;;;;;;;4.78;3.92;;;;;;;21.94;43.76;101647.78;3578946;40;20491;-67
2021/06/04 04:29:38;;;;;;;6.00;4.25;;;;;;;21.92;43.68;101651.81;3575551;40;20048;-67
2021/06/04 04:32:13;;;;;;;6.00;4.80;;;;;;;21.95;44.32;101649.53;3577782;40;20175;-67
2021/06/04 04:34:41;;;;;;;5.72;4.80;;;;;;;21.90;43.57;101645.59;3578931;40;20343;-67
2021/06/04 04:37:11;;;;;;;5.35;4.05;;;;;;;21.90;43.96;101643.66;3578204;40;20053;-67
2021/06/04 04:39:42;;;;;;;5.82;4.50;;;;;;;21.90;43.66;101649.25;3580883;40;20056;-67
2021/06/04 04:42:13;;;;;;;5.57;4.28;;;;;;;21.89;43.80;101646.63;3577501;40;20049;-68
2021/06/04 04:44:42;;;;;;;5.65;4.50;;;;;;;21.89;44.18;101644.72;3578128;40;20103;-68
2021/06/04 04:47:14;;;;;;;5.40;4.70;;;;;;;21.90;43.99;101640.00;3578980;40;20126;-67
2021/06/04 04:49:43;;;;;;;6.15;4.65;;;;;;;21.86;43.72;101639.50;3581716;40;20056;-68
2021/06/04 04:52:12;;;;;;;5.40;4.43;;;;;;;21.88;43.88;101639.31;3576181;40;20130;-68
2021/06/04 04:54:42;;;;;;;5.63;4.60;;;;;;;21.86;43.70;101633.94;3580206;40;20398;-68
2021/06/04 04:57:10;;;;;;;5.95;4.68;;;;;;;21.86;44.29;101638.63;3580597;40;20053;-68
2021/06/04 04:59:39;;;;;;;5.90;4.78;;;;;;;21.84;44.06;101644.41;3578734;40;20080;-66
2021/06/04 05:02:09;;;;;;;5.30;4.13;;;;;;;21.83;44.23;101651.88;3579102;40;20061;-68
2021/06/04 05:04:39;;;;;;;5.88;4.32;;;;;;;21.83;44.00;101654.66;3576530;40;20060;-68
2021/06/04 05:07:07;;;;;;;5.10;3.95;;;;;;;21.80;44.07;101656.97;3584165;40;20111;-68
2021/06/04 05:09:44;;;;;;;6.45;4.53;;;;;;;21.83;44.48;101654.66;3579212;40;20041;-68
2021/06/04 05:12:12;;;;;;;4.97;4.15;;;;;;;21.79;44.24;101656.09;3576826;40;20059;-67
2021/06/04 05:14:40;;;;;;;5.97;4.07;;;;;;;21.81;43.98;101662.38;3577784;40;20131;-67
2021/06/04 05:17:08;;;;;;;4.85;4.13;;;;;;;21.81;44.36;101665.16;3583560;40;20045;-67
2021/06/04 05:19:38;;;;;;;8.02;5.18;;;;;;;21.84;44.14;101669.47;3578606;40;20048;-67
2021/06/04 05:22:08;;;;;;;6.40;4.72;;;;;;;21.87;44.60;101660.75;3576056;40;20060;-67
2021/06/04 05:24:36;;;;;;;6.35;4.55;;;;;;;21.89;44.56;101663.34;3574242;40;20045;-67
2021/06/04 05:27:07;;;;;;;6.22;4.60;;;;;;;21.90;44.62;101660.38;3578367;40;20070;-67
2021/06/04 05:29:35;;;;;;;6.03;4.85;;;;;;;21.96;44.72;101669.91;3576431;40;20134;-67
2021/06/04 05:32:04;;;;;;;7.53;4.68;;;;;;;22.00;44.89;101666.53;3578366;40;20053;-67
2021/06/04 05:34:32;;;;;;;6.30;4.88;;;;;;;22.03;45.04;101668.94;3578961;40;20060;-67
2021/06/04 05:37:00;;;;;;;6.32;4.72;;;;;;;22.08;44.73;101677.59;3577898;40;20056;-67
2021/06/04 05:39:30;;;;;;;5.93;4.75;;;;;;;22.15;44.64;101680.50;3578130;40;20134;-68
2021/06/04 05:42:00;;;;;;;5.88;5.25;;;;;;;22.20;44.85;101680.81;3573964;40;20319;-68
2021/06/04 05:44:30;;;;;;;6.55;5.30;;;;;;;22.26;44.73;101680.06;3578684;40;20033;-67
2021/06/04 05:47:03;;;;;;;6.75;5.55;;;;;;;22.33;44.68;101680.19;3578600;40;20048;-67
2021/06/04 05:49:31;;;;;;;6.68;5.00;;;;;;;22.34;44.94;101679.13;3578405;40;20402;-68
2021/06/04 05:52:08;;;;;;;6.00;4.93;;;;;;;22.45;44.96;101678.66;3577864;40;20057;-67
2021/06/04 05:54:39;;;;;;;7.57;5.15;;;;;;;22.52;44.98;101680.50;3578652;40;20067;-68
2021/06/04 05:57:08;;;;;;;7.45;5.20;;;;;;;22.60;44.98;101685.13;3578212;40;20041;-68
2021/06/04 05:59:36;;;;;;;6.55;5.28;;;;;;;22.67;44.80;101679.63;3577727;40;20149;-68
2021/06/04 06:02:05;;;;;;;6.68;5.15;;;;;;;22.76;44.51;101672.91;3576687;40;20041;-68
2021/06/04 06:04:33;;;;;;;7.25;5.22;;;;;;;22.81;44.44;101673.16;3575453;40;20044;-68
2021/06/04 06:07:04;;;;;;;7.82;6.28;;;;;;;22.88;44.54;101677.84;3575928;40;20048;-67
2021/06/04 06:09:37;;;;;;;6.30;5.35;;;;;;;22.98;44.52;101676.66;3575579;40;20052;-68
2021/06/04 06:12:07;;;;;;;6.75;4.97;;;;;;;23.03;44.38;101680.59;3573433;40;20064;-69
2021/06/04 06:14:35;;;;;;;7.47;5.57;;;;;;;23.10;44.56;101683.47;3573485;40;20055;-69
2021/06/04 06:17:03;;;;;;;6.80;5.78;;;;;;;23.17;44.08;101681.63;3571549;40;20052;-69
2021/06/04 06:19:31;;;;;;;7.82;5.50;;;;;;;23.24;44.08;101686.22;3577102;40;20084;-69
2021/06/04 06:22:00;;;;;;;6.63;5.40;;;;;;;23.32;44.23;101680.53;3574242;40;20048;-70
2021/06/04 06:24:28;;;;;;;7.75;5.72;;;;;;;23.41;44.16;101688.78;3578525;40;20062;-69
2021/06/04 06:26:58;;;;;;;7.43;6.25;;;;;;;23.51;43.76;101690.25;3578630;40;20053;-69
2021/06/04 06:29:29;;;;;;;8.05;5.97;;;;;;;23.57;43.35;101694.16;3576957;40;20048;-70
2021/06/04 06:31:59;;;;;;;8.45;6.15;;;;;;;23.62;43.15;101698.09;3576838;40;20131;-69
2021/06/04 06:34:27;;;;;;;8.23;6.10;;;;;;;23.67;43.16;101695.56;3578089;40;20060;-68
2021/06/04 06:36:55;;;;;;;8.52;6.57;;;;;;;23.71;42.79;101689.59;3577645;40;20077;-67
2021/06/04 06:39:27;;;;;;;8.00;5.97;;;;;;;23.74;42.93;101695.63;3576947;40;20045;-67
2021/06/04 06:42:01;;;;;;;6.50;5.78;;;;;;;23.75;42.77;101696.50;3575779;40;20491;-68
2021/06/04 06:44:28;;;;;;;;;;;;;;;23.47;43.10;101693.59;3582056;40;20057;-68
2021/06/04 06:46:56;;;;;;;7.30;5.45;;;;;;;23.75;43.06;101691.78;3573770;40;20242;-69
2021/06/04 06:49:25;;;;;;;7.70;6.47;;;;;;;23.84;42.51;101698.97;3577279;40;20057;-68
2021/06/04 06:51:55;;;;;;;7.47;5.97;;;;;;;23.85;42.38;101703.50;3577180;40;20398;-68
2021/06/04 06:54:24;;;;;;;8.40;6.55;;;;;;;23.88;42.42;101703.06;3569457;40;20057;-67
2021/06/04 06:56:54;;;;;;;7.03;5.30;;;;;;;23.90;42.43;101711.25;3577183;40;20051;-67
2021/06/04 06:59:26;;;;;;;6.53;5.50;;;;;;;23.91;42.36;101708.28;3577056;40;20068;-67
2021/06/04 07:01:54;;;;;;;6.35;5.38;;;;;;;23.89;42.54;101715.13;3575193;40;20134;-67
2021/06/04 07:04:22;;;;;;;6.30;5.32;;;;;;;23.92;42.28;101717.53;3571637;40;20056;-67
2021/06/04 07:06:51;;;;;;;6.50;5.55;;;;;;;23.94;42.17;101718.19;3579833;40;20057;-68
2021/06/04 07:09:19;;;;;;;7.05;5.85;;;;;;;23.95;42.26;101709.63;3576316;40;20053;-67
2021/06/04 07:11:52;;;;;;;8.13;6.00;;;;;;;23.99;42.07;101710.06;3575568;40;20123;-66
2021/06/04 07:14:21;;;;;;;;;;;;;;;23.72;42.53;101719.25;3577966;40;20053;-66
2021/06/04 07:16:56;;;;;;;7.10;5.10;;;;;;;24.02;42.51;101718.06;3578582;40;19932;-67
2021/06/04 07:19:24;;;;;;;8.25;6.22;;;;;;;24.04;42.35;101716.78;3577706;40;20052;-67
2021/06/04 07:21:53;;;;;;;8.30;6.18;;;;;;;24.09;42.45;101723.75;3576102;40;20053;-66
2021/06/04 07:24:22;;;;;;;8.02;5.65;;;;;;;24.13;42.40;101716.66;3575534;40;20064;-68
2021/06/04 07:26:53;;;;;;;7.85;5.75;;;;;;;24.20;42.43;101718.47;3579443;40;20138;-66
2021/06/04 07:29:24;;;;;;;7.65;6.20;;;;;;;24.24;42.44;101719.78;3576168;40;20057;-66
2021/06/04 07:31:56;;;;;;;7.65;6.32;;;;;;;24.32;42.07;101713.19;3576798;40;20060;-66
2021/06/04 07:34:24;;;;;;;7.35;6.00;;;;;;;24.32;42.17;101716.84;3575306;40;20064;-67
2021/06/04 07:36:54;;;;;;;7.82;5.65;;;;;;;24.41;42.04;101710.03;3575818;40;20053;-65
2021/06/04 07:39:26;;;;;;;9.00;6.65;;;;;;;24.49;41.79;101709.03;3576768;40;20053;-65
2021/06/04 07:41:54;;;;;;;8.90;6.80;;;;;;;24.53;41.91;101713.16;3579703;40;20298;-66
2021/06/04 07:44:24;;;;;;;7.68;6.47;;;;;;;24.62;41.65;101711.06;3578656;40;20083;-65
2021/06/04 07:46:54;;;;;;;9.43;7.28;;;;;;;24.69;41.79;101710.06;3580214;40;20029;-66
2021/06/04 07:49:23;;;;;;;7.95;6.38;;;;;;;24.77;41.62;101711.84;3569495;40;20081;-67
2021/06/04 07:51:56;;;;;;;8.90;6.47;;;;;;;24.85;41.37;101716.41;3585594;40;20053;-67
2021/06/04 07:54:25;;;;;;;8.32;6.18;;;;;;;24.93;41.39;101716.22;3577712;40;20095;-66
2021/06/04 07:56:54;;;;;;;7.82;6.85;;;;;;;24.98;41.02;101706.13;3576733;40;20056;-67
2021/06/04 07:59:22;;;;;;;9.38;7.10;;;;;;;25.05;41.01;101707.03;3577614;40;20057;-65
2021/06/04 08:01:51;;;;;;;9.35;7.30;;;;;;;25.13;41.03;101704.06;3577420;40;20057;-65
2021/06/04 08:04:20;;;;;;;10.20;7.25;;;;;;;25.23;40.57;101702.81;3578499;40;20072;-65
2021/06/04 08:06:50;;;;;;;8.50;6.45;;;;;;;25.28;40.56;101708.69;3578803;40;20402;-65
2021/06/04 08:09:19;;;;;;;10.02;6.93;;;;;;;25.34;40.01;101705.03;3578645;40;20053;-66
2021/06/04 08:11:49;;;;;;;9.50;7.45;;;;;;;25.39;39.75;101702.47;3578085;40;20089;-65
2021/06/04 08:14:22;;;;;;;7.70;5.82;;;;;;;25.45;39.58;101710.03;3581088;40;20085;-65
2021/06/04 08:16:50;;;;;;;8.57;6.70;;;;;;;25.48;39.84;101716.09;3577383;40;20072;-66
2021/06/04 08:19:21;;;;;;;9.55;6.95;;;;;;;25.52;39.66;101720.19;3575054;40;20047;-66
2021/06/04 08:21:52;;;;;;;6.97;5.78;;;;;;;25.61;39.53;101706.84;3577835;40;20040;-67
2021/06/04 08:24:25;;;;;;;8.95;6.80;;;;;;;25.66;39.43;101706.22;3577477;40;20053;-67
2021/06/04 08:26:53;;;;;;;8.90;6.80;;;;;;;25.72;39.52;101696.94;3575138;40;20058;-67
2021/06/04 08:29:22;;;;;;;9.32;7.38;;;;;;;25.82;39.19;101703.91;3580149;40;20083;-66
2021/06/04 08:31:50;;;;;;;8.43;6.07;;;;;;;25.91;39.16;101705.44;3578610;40;20049;-66
2021/06/04 08:34:20;;;;;;;10.75;7.78;;;;;;;26.01;38.48;101702.22;3578985;40;20071;-66
2021/06/04 08:36:48;;;;;;;9.65;7.50;;;;;;;26.07;38.29;101706.09;3578031;40;20061;-67
2021/06/04 08:39:19;;;;;;;11.18;7.75;;;;;;;26.15;38.10;101695.53;3577759;40;20056;-66
2021/06/04 08:41:57;;;;;;;9.88;7.30;;;;;;;26.22;37.92;101693.59;3581731;40;20052;-67
2021/06/04 08:44:41;;;;;;;7.68;6.40;;;;;;;26.25;37.58;101697.91;3577702;40;20037;-67
2021/06/04 08:47:16;;;;;;;10.32;7.95;;;;;;;26.27;37.60;101690.13;3574897;40;20325;-68
2021/06/04 08:50:04;;;;;;;10.32;8.55;;;;;;;26.28;37.38;101691.84;3578333;40;20049;-67
2021/06/04 08:52:40;;;;;;;10.40;8.50;;;;;;;26.30;37.22;101689.69;3579189;40;20060;-67
2021/06/04 08:55:24;;;;;;;9.50;7.70;;;;;;;26.31;37.03;101686.69;3574146;40;20130;-66
2021/06/04 08:57:56;;;;;;;9.65;8.27;;;;;;;26.31;36.92;101692.28;3578539;40;20057;-66
2021/06/04 09:00:27;;;;;;;12.27;9.07;;;;;;;26.30;36.55;101698.13;3580498;40;20063;-67
2021/06/04 09:03:00;;;;;;;11.63;8.83;;;;;;;26.30;36.82;101698.13;3577903;40;20061;-66
2021/06/04 09:05:39;;;;;;;9.75;7.65;;;;;;;26.34;36.18;101701.38;3578886;40;20287;-65
2021/06/04 09:08:10;;;;;;;12.07;7.95;;;;;;;26.31;36.71;101702.66;3575771;40;20056;-65
2021/06/04 09:10:48;;;;;;;11.07;8.98;;;;;;;26.33;36.10;101703.31;3577361;40;20053;-67
2021/06/04 09:13:23;;;;;;;11.65;9.18;;;;;;;26.31;35.72;101699.84;3576515;40;20049;-66
2021/06/04 09:15:55;;;;;;;13.70;9.55;;;;;;;26.28;35.26;101695.53;3578931;40;20048;-66
2021/06/04 09:18:29;;;;;;;11.55;8.85;;;;;;;26.26;35.49;101692.09;3576212;40;20057;-67
2021/06/04 09:21:02;;;;;;;11.57;9.30;;;;;;;26.23;35.12;101694.44;3576886;40;20116;-67
2021/06/04 09:23:33;;;;;;;12.52;10.25;;;;;;;26.17;35.34;101693.38;3575646;40;20046;-66
2021/06/04 09:26:03;;;;;;;12.52;10.13;;;;;;;26.10;35.03;101689.69;3577730;40;20056;-65
2021/06/04 09:28:34;;;;;;;11.45;8.57;;;;;;;26.11;35.51;101694.22;3579021;40;20088;-65
2021/06/04 09:31:24;;;;;;;11.88;9.23;;;;;;;26.06;35.10;101693.16;3578668;40;20323;-65
2021/06/04 09:33:55;;;;;;;10.38;8.35;;;;;;;26.04;35.70;101687.75;3578080;40;20059;-66
2021/06/04 09:36:26;;;;;;;10.73;8.27;;;;;;;26.05;35.08;101692.28;3577805;40;20060;-66
2021/06/04 09:39:13;;;;;;;11.00;8.57;;;;;;;26.02;35.50;101687.09;3578726;40;20092;-65
2021/06/04 09:41:44;;;;;;;9.20;8.13;;;;;;;25.98;35.16;101685.81;3575546;40;20314;-65
2021/06/04 09:44:23;;;;;;;11.75;8.57;;;;;;;25.98;34.90;101680.22;3577628;40;20049;-67
2021/06/04 09:46:55;;;;;;;9.05;7.80;;;;;;;25.95;35.54;101677.81;3578037;40;20052;-67
2021/06/04 09:49:29;;;;;;;9.82;7.43;;;;;;;25.94;35.44;101678.91;3577274;40;20044;-67
2021/06/04 09:52:18;;;;;;;12.95;10.45;;;;;;;25.90;34.43;101686.88;3578385;40;20041;-66
2021/06/04 09:55:06;;;;;;;10.90;9.10;;;;;;;25.91;35.07;101679.34;3578462;40;20394;-65
2021/06/04 09:57:54;;;;;;;10.15;7.97;;;;;;;25.89;35.44;101678.69;3582879;40;20472;-66
2021/06/04 10:00:27;;;;;;;11.15;9.48;;;;;;;25.94;34.61;101676.09;3582184;40;20052;-66
2021/06/04 10:03:13;;;;;;;12.23;10.05;;;;;;;25.97;34.49;101672.00;3568741;40;20275;-67
2021/06/04 10:05:41;;;;;;;10.00;8.10;;;;;;;25.94;35.22;101662.94;3576197;40;20049;-65
2021/06/04 10:08:23;;;;;;;10.23;8.32;;;;;;;26.01;34.97;101668.56;3577189;40;20052;-65
2021/06/04 10:11:06;;;;;;;10.63;8.20;;;;;;;26.06;35.30;101662.31;3577415;40;20055;-66
2021/06/04 10:13:52;;;;;;;10.50;8.38;;;;;;;26.11;34.78;101654.97;3577735;40;20053;-66
2021/06/04 10:16:59;;;;;;;9.77;8.13;;;;;;;26.18;34.39;101658.66;3578438;40;20056;-66
2021/06/04 10:19:36;;;;;;;10.35;7.72;;;;;;;26.25;34.82;101655.84;3577377;40;20064;-66
2021/06/04 10:22:30;;;;;;;10.13;8.40;;;;;;;26.33;33.70;101661.22;3578602;40;20317;-67
2021/06/04 10:25:26;;;;;;;9.20;6.82;;;;;;;26.36;34.89;101657.09;3576538;40;20052;-70
2021/06/04 10:27:57;;;;;;;9.65;8.55;;;;;;;26.45;34.40;101659.50;3578653;40;20138;-71
2021/06/04 10:30:41;;;;;;;9.35;8.40;;;;;;;26.53;33.71;101666.81;3573334;40;20058;-68
2021/06/04 10:33:16;;;;;;;9.05;7.55;;;;;;;26.58;33.76;101661.44;3578644;40;20317;-68
2021/06/04 10:35:54;;;;;;;8.65;7.13;;;;;;;26.64;34.30;101663.34;3573007;40;20049;-69
2021/06/04 10:38:28;;;;;;;9.57;8.57;;;;;;;26.69;33.71;101667.22;3573908;40;20071;-69
2021/06/04 10:41:01;;;;;;;8.30;7.15;;;;;;;26.79;33.82;101652.72;3569456;40;20053;-67
2021/06/04 10:43:50;;;;;;;9.75;7.85;;;;;;;26.85;32.83;101650.97;3573571;40;20057;-67
2021/06/04 10:46:24;;;;;;;8.93;7.88;;;;;;;26.91;33.54;101652.91;3577676;40;20085;-67
2021/06/04 10:49:17;;;;;;;9.45;8.43;;;;;;;26.97;33.01;101646.44;3577018;40;20142;-67
2021/06/04 10:51:54;;;;;;;10.00;8.63;;;;;;;27.01;32.40;101642.09;3578210;40;20053;-67
2021/06/04 10:54:31;;;;;;;9.98;8.13;;;;;;;27.05;32.90;101641.44;3576096;40;20658;-67
2021/06/04 10:57:04;;;;;;;9.18;7.95;;;;;;;27.08;32.66;101640.13;3578005;40;20068;-67
2021/06/04 10:59:40;;;;;;;9.70;8.70;;;;;;;27.12;31.92;101638.59;3576508;40;20062;-67
2021/06/04 11:02:22;;;;;;;9.65;8.65;;;;;;;27.14;32.09;101647.66;3577216;40;20049;-68
2021/06/04 11:05:02;;;;;;;9.80;8.05;;;;;;;27.18;32.17;101646.09;3579885;40;20053;-67
2021/06/04 11:07:35;;;;;;;7.97;7.18;;;;;;;27.18;32.36;101645.25;3578313;40;20500;-67
2021/06/04 11:10:12;;;;;;;9.20;8.02;;;;;;;27.19;32.47;101642.22;3579613;40;20044;-67
2021/06/04 11:13:05;;;;;;;9.23;7.65;;;;;;;27.21;32.29;101645.66;3575898;40;20314;-68
2021/06/04 11:15:50;;;;;;;8.10;7.07;;;;;;;27.23;32.35;101629.47;3571529;40;20394;-68
2021/06/04 11:18:31;;;;;;;8.43;7.53;;;;;;;27.24;32.20;101624.72;3573937;40;20389;-68
2021/06/04 11:21:02;;;;;;;8.75;7.28;;;;;;;27.24;32.17;101624.72;3576415;40;20056;-67
2021/06/04 11:23:48;;;;;;;7.88;6.72;;;;;;;27.25;32.05;101624.50;3574248;40;20051;-68
2021/06/04 11:26:21;;;;;;;8.70;7.45;;;;;;;27.27;32.55;101615.81;3578424;40;20334;-68
2021/06/04 11:28:56;;;;;;;8.75;7.82;;;;;;;27.30;31.86;101606.94;3576648;40;20071;-68
2021/06/04 11:31:33;;;;;;;10.02;8.20;;;;;;;27.33;31.88;101603.69;3581158;40;20434;-68
2021/06/04 11:34:07;;;;;;;10.43;8.52;;;;;;;27.34;31.26;101602.56;3577850;40;20051;-68
2021/06/04 11:36:43;;;;;;;8.77;7.88;;;;;;;27.36;31.41;101594.78;3583631;40;20045;-68
2021/06/04 11:39:17;;;;;;;8.85;7.95;;;;;;;27.37;31.83;101588.09;3580463;40;20100;-68
2021/06/04 11:41:48;;;;;;;9.90;7.95;;;;;;;27.40;31.91;101584.84;3579594;40;20045;-68
2021/06/04 11:44:25;;;;;;;8.95;8.05;;;;;;;27.44;31.07;101581.34;3573997;40;20041;-69
2021/06/04 11:47:31;;;;;;;9.23;7.72;;;;;;;27.43;31.84;101590.00;3583534;40;20344;-68
2021/06/04 11:50:32;;;;;;;9.13;7.90;;;;;;;27.50;31.48;101585.25;3546741;40;20066;-69
2021/06/04 11:53:26;;;;;;;9.65;8.23;;;;;;;27.57;30.90;101582.38;3583942;40;20126;-69